Terminal Aerodrome Forecast
Issued by NWS Portland, OR

Home | Current Version | Previous Version | Text Only | Print | Product List | Glossary On
Versions: 1 2 3 4 5 6 7 8 9 10 11 12 13 14 15 16
000
FTUS46 KPQR 041131
TAFSLE
TAF
KSLE 041131Z 0412/0512 33006KT P6SM OVC022
     FM041700 01007KT P6SM SCT025 BKN100
     FM042100 01010KT P6SM VCSH SCT040 BKN080
     FM050000 01010KT P6SM -SHRA BKN035 OVC060
     FM050500 33008KT P6SM VCSH SCT025 BKN060 BKN090=

USA.gov is the U.S. government's official web portal to all federal, state and local government web resources and services.